sensor_id;sensor_type;location;lat;lon;timestamp;pressure;altitude;pressure_sealevel;temperature;humidity
18678;BME280;9469;51.114;13.914;2023-06-05T00:02:11;99240.63;;;12.35;86.33
18678;BME280;9469;51.114;13.914;2023-06-05T00:07:18;99241.53;;;12.30;86.22
18678;BME280;9469;51.114;13.914;2023-06-05T00:12:26;99219.97;;;12.13;85.40
18678;BME280;9469;51.114;13.914;2023-06-05T00:17:31;99220.94;;;12.31;84.58
18678;BME280;9469;51.114;13.914;2023-06-05T00:22:37;99221.03;;;12.53;83.31
18678;BME280;9469;51.114;13.914;2023-06-05T00:27:45;99222.63;;;12.40;83.40
18678;BME280;9469;51.114;13.914;2023-06-05T00:32:53;99217.59;;;12.39;83.84
18678;BME280;9469;51.114;13.914;2023-06-05T00:37:59;99217.31;;;12.27;84.26
18678;BME280;9469;51.114;13.914;2023-06-05T00:43:07;99210.59;;;12.15;85.65
18678;BME280;9469;51.114;13.914;2023-06-05T00:48:12;99209.69;;;12.20;85.79
18678;BME280;9469;51.114;13.914;2023-06-05T00:53:18;99217.91;;;11.96;86.97
18678;BME280;9469;51.114;13.914;2023-06-05T00:58:26;99213.44;;;12.05;86.13
18678;BME280;9469;51.114;13.914;2023-06-05T01:03:32;99209.13;;;12.23;85.11
18678;BME280;9469;51.114;13.914;2023-06-05T01:08:38;99208.13;;;11.78;87.43
18678;BME280;9469;51.114;13.914;2023-06-05T01:13:59;99206.94;;;11.84;87.25
18678;BME280;9469;51.114;13.914;2023-06-05T01:19:13;99202.78;;;11.78;87.66
18678;BME280;9469;51.114;13.914;2023-06-05T01:24:22;99211.34;;;11.62;88.42
18678;BME280;9469;51.114;13.914;2023-06-05T01:29:32;99201.75;;;11.61;87.66
18678;BME280;9469;51.114;13.914;2023-06-05T01:34:39;99200.03;;;11.83;86.63
18678;BME280;9469;51.114;13.914;2023-06-05T01:39:49;99201.63;;;11.84;86.93
18678;BME280;9469;51.114;13.914;2023-06-05T01:44:54;99196.66;;;11.64;87.70
18678;BME280;9469;51.114;13.914;2023-06-05T01:50:00;99198.50;;;11.50;88.69
18678;BME280;9469;51.114;13.914;2023-06-05T01:55:09;99198.56;;;11.45;89.01
18678;BME280;9469;51.114;13.914;2023-06-05T02:00:17;99195.31;;;11.34;90.03
18678;BME280;9469;51.114;13.914;2023-06-05T02:05:22;99198.94;;;11.25;90.03
18678;BME280;9469;51.114;13.914;2023-06-05T02:10:34;99185.78;;;11.15;90.23
18678;BME280;9469;51.114;13.914;2023-06-05T02:15:45;99185.47;;;11.03;90.11
18678;BME280;9469;51.114;13.914;2023-06-05T02:20:58;99192.06;;;11.05;90.16
18678;BME280;9469;51.114;13.914;2023-06-05T02:26:07;99187.69;;;10.96;90.83
18678;BME280;9469;51.114;13.914;2023-06-05T02:31:12;99183.63;;;10.85;90.75
18678;BME280;9469;51.114;13.914;2023-06-05T02:36:18;99179.16;;;10.80;90.34
18678;BME280;9469;51.114;13.914;2023-06-05T02:41:26;99178.84;;;10.81;89.59
18678;BME280;9469;51.114;13.914;2023-06-05T02:46:38;99190.44;;;10.91;89.22
18678;BME280;9469;51.114;13.914;2023-06-05T02:51:44;99177.91;;;10.91;88.23
18678;BME280;9469;51.114;13.914;2023-06-05T02:56:52;99182.50;;;10.86;88.86
18678;BME280;9469;51.114;13.914;2023-06-05T03:01:59;99183.13;;;10.82;88.88
18678;BME280;9469;51.114;13.914;2023-06-05T03:07:05;99188.38;;;10.88;88.96
18678;BME280;9469;51.114;13.914;2023-06-05T03:12:15;99178.84;;;10.81;89.11
18678;BME280;9469;51.114;13.914;2023-06-05T03:17:20;99187.44;;;10.78;89.07
18678;BME280;9469;51.114;13.914;2023-06-05T03:22:27;99191.31;;;10.67;88.44
18678;BME280;9469;51.114;13.914;2023-06-05T03:27:35;99180.38;;;10.88;88.38
18678;BME280;9469;51.114;13.914;2023-06-05T03:32:40;99177.91;;;10.91;88.35
18678;BME280;9469;51.114;13.914;2023-06-05T03:37:47;99189.09;;;11.07;87.85
18678;BME280;9469;51.114;13.914;2023-06-05T03:42:55;99187.19;;;10.94;88.43
18678;BME280;9469;51.114;13.914;2023-06-05T03:48:04;99179.19;;;11.12;88.84
18678;BME280;9469;51.114;13.914;2023-06-05T03:53:14;99182.53;;;11.64;86.22
18678;BME280;9469;51.114;13.914;2023-06-05T03:58:25;99185.22;;;11.77;85.86
18678;BME280;9469;51.114;13.914;2023-06-05T04:03:37;99185.81;;;11.74;84.22
18678;BME280;9469;51.114;13.914;2023-06-05T04:08:45;99181.34;;;12.24;83.21
18678;BME280;9469;51.114;13.914;2023-06-05T04:13:57;99183.38;;;12.41;82.62
18678;BME280;9469;51.114;13.914;2023-06-05T04:19:06;99184.41;;;12.31;82.29
18678;BME280;9469;51.114;13.914;2023-06-05T04:24:14;99192.66;;;12.57;82.95
18678;BME280;9469;51.114;13.914;2023-06-05T04:29:23;99190.72;;;12.71;82.55
18678;BME280;9469;51.114;13.914;2023-06-05T04:34:31;99187.91;;;12.76;81.68
18678;BME280;9469;51.114;13.914;2023-06-05T04:39:39;99184.06;;;13.57;79.48
18678;BME280;9469;51.114;13.914;2023-06-05T04:44:53;99180.91;;;13.24;78.89
18678;BME280;9469;51.114;13.914;2023-06-05T04:50:04;99183.75;;;13.50;75.78
18678;BME280;9469;51.114;13.914;2023-06-05T04:55:14;99178.47;;;14.15;74.39
18678;BME280;9469;51.114;13.914;2023-06-05T05:00:25;99174.94;;;14.88;73.02
18678;BME280;9469;51.114;13.914;2023-06-05T05:05:33;99181.84;;;14.63;74.02
18678;BME280;9469;51.114;13.914;2023-06-05T05:10:39;99187.28;;;14.24;73.84
18678;BME280;9469;51.114;13.914;2023-06-05T05:15:50;99186.41;;;15.14;72.73
18678;BME280;9469;51.114;13.914;2023-06-05T05:20:58;99184.94;;;16.18;68.99
18678;BME280;9469;51.114;13.914;2023-06-05T05:26:06;99185.34;;;15.99;69.24
18678;BME280;9469;51.114;13.914;2023-06-05T05:31:15;99177.88;;;17.61;66.47
18678;BME280;9469;51.114;13.914;2023-06-05T05:36:22;99176.50;;;18.40;64.57
18678;BME280;9469;51.114;13.914;2023-06-05T05:41:29;99187.44;;;19.11;63.58
18678;BME280;9469;51.114;13.914;2023-06-05T05:46:37;99177.97;;;20.42;60.64
18678;BME280;9469;51.114;13.914;2023-06-05T05:51:42;99174.84;;;22.03;57.74
18678;BME280;9469;51.114;13.914;2023-06-05T05:56:50;99177.09;;;21.11;59.72
18678;BME280;9469;51.114;13.914;2023-06-05T06:02:00;99178.94;;;21.49;60.09
18678;BME280;9469;51.114;13.914;2023-06-05T06:07:14;99171.38;;;22.89;57.28
18678;BME280;9469;51.114;13.914;2023-06-05T06:12:20;99170.19;;;23.23;57.83
18678;BME280;9469;51.114;13.914;2023-06-05T06:17:28;99172.34;;;23.40;56.83
18678;BME280;9469;51.114;13.914;2023-06-05T06:22:33;99171.00;;;23.64;56.66
18678;BME280;9469;51.114;13.914;2023-06-05T06:27:39;99170.75;;;23.02;57.53
18678;BME280;9469;51.114;13.914;2023-06-05T06:32:48;99171.00;;;24.11;55.21
18678;BME280;9469;51.114;13.914;2023-06-05T06:37:57;99166.03;;;24.92;53.00
18678;BME280;9469;51.114;13.914;2023-06-05T06:43:07;99161.88;;;25.93;51.57
18678;BME280;9469;51.114;13.914;2023-06-05T06:48:24;99165.38;;;26.01;49.63
18678;BME280;9469;51.114;13.914;2023-06-05T06:53:29;99169.72;;;24.59;53.02
18678;BME280;9469;51.114;13.914;2023-06-05T06:58:35;99165.34;;;25.37;51.48
18678;BME280;9469;51.114;13.914;2023-06-05T07:03:44;99175.88;;;23.88;49.46
18678;BME280;9469;51.114;13.914;2023-06-05T07:08:49;99183.97;;;23.07;52.11
18678;BME280;9469;51.114;13.914;2023-06-05T07:13:55;99176.53;;;24.25;52.47
18678;BME280;9469;51.114;13.914;2023-06-05T07:19:04;99181.28;;;23.40;50.13
18678;BME280;9469;51.114;13.914;2023-06-05T07:24:09;99177.88;;;23.50;50.51
18678;BME280;9469;51.114;13.914;2023-06-05T07:29:17;99174.81;;;23.59;50.53
18678;BME280;9469;51.114;13.914;2023-06-05T07:34:27;99168.59;;;24.02;50.36
18678;BME280;9469;51.114;13.914;2023-06-05T07:39:32;99172.56;;;23.65;49.41
18678;BME280;9469;51.114;13.914;2023-06-05T07:44:38;99177.72;;;23.77;49.79
18678;BME280;9469;51.114;13.914;2023-06-05T07:49:56;99167.38;;;23.12;49.73
18678;BME280;9469;51.114;13.914;2023-06-05T07:55:04;99169.44;;;23.26;50.49
18678;BME280;9469;51.114;13.914;2023-06-05T08:00:11;99170.31;;;23.33;49.80
18678;BME280;9469;51.114;13.914;2023-06-05T08:05:20;99171.44;;;23.69;49.88
18678;BME280;9469;51.114;13.914;2023-06-05T08:10:25;99163.28;;;23.29;49.52
18678;BME280;9469;51.114;13.914;2023-06-05T08:15:31;99168.44;;;23.81;50.27
18678;BME280;9469;51.114;13.914;2023-06-05T08:20:39;99165.50;;;23.57;50.25
18678;BME280;9469;51.114;13.914;2023-06-05T08:25:47;99160.97;;;23.71;51.22
18678;BME280;9469;51.114;13.914;2023-06-05T08:30:55;99170.06;;;23.93;50.76
18678;BME280;9469;51.114;13.914;2023-06-05T08:36:06;99161.91;;;23.45;50.35
18678;BME280;9469;51.114;13.914;2023-06-05T08:41:14;99156.00;;;23.80;50.71
18678;BME280;9469;51.114;13.914;2023-06-05T08:46:20;99168.97;;;24.01;50.20
18678;BME280;9469;51.114;13.914;2023-06-05T08:51:28;99154.84;;;24.36;49.93
18678;BME280;9469;51.114;13.914;2023-06-05T08:56:43;99163.47;;;24.52;51.38
18678;BME280;9469;51.114;13.914;2023-06-05T09:01:53;99150.84;;;24.15;49.64
18678;BME280;9469;51.114;13.914;2023-06-05T09:07:03;99146.53;;;24.79;49.59
18678;BME280;9469;51.114;13.914;2023-06-05T09:12:11;99152.84;;;24.22;50.48
18678;BME280;9469;51.114;13.914;2023-06-05T09:17:17;99156.25;;;24.80;49.84
18678;BME280;9469;51.114;13.914;2023-06-05T09:22:36;99147.97;;;24.56;49.29
18678;BME280;9469;51.114;13.914;2023-06-05T09:27:42;99150.28;;;24.57;50.23
18678;BME280;9469;51.114;13.914;2023-06-05T09:32:50;99144.28;;;25.20;49.44
18678;BME280;9469;51.114;13.914;2023-06-05T09:38:00;99138.53;;;25.50;49.38
18678;BME280;9469;51.114;13.914;2023-06-05T09:43:15;99148.72;;;24.49;49.64
18678;BME280;9469;51.114;13.914;2023-06-05T09:48:24;99132.00;;;23.86;51.04
18678;BME280;9469;51.114;13.914;2023-06-05T09:53:33;99141.97;;;25.12;50.37
18678;BME280;9469;51.114;13.914;2023-06-05T09:58:43;99129.13;;;25.16;49.14
18678;BME280;9469;51.114;13.914;2023-06-05T10:03:57;99132.03;;;24.61;48.19
18678;BME280;9469;51.114;13.914;2023-06-05T10:09:06;99110.88;;;25.34;47.47
18678;BME280;9469;51.114;13.914;2023-06-05T10:14:13;99127.00;;;24.60;48.22
18678;BME280;9469;51.114;13.914;2023-06-05T10:19:22;99131.09;;;25.40;47.67
18678;BME280;9469;51.114;13.914;2023-06-05T10:24:33;99124.84;;;25.11;46.08
18678;BME280;9469;51.114;13.914;2023-06-05T10:35:13;99111.19;;;24.93;46.66
18678;BME280;9469;51.114;13.914;2023-06-05T10:40:24;99112.03;;;25.40;46.60
18678;BME280;9469;51.114;13.914;2023-06-05T10:45:30;99107.34;;;25.12;46.66
18678;BME280;9469;51.114;13.914;2023-06-05T10:50:36;99100.34;;;25.29;46.56
18678;BME280;9469;51.114;13.914;2023-06-05T10:55:49;99093.31;;;26.05;46.02
18678;BME280;9469;51.114;13.914;2023-06-05T11:01:16;99096.06;;;26.02;45.76
18678;BME280;9469;51.114;13.914;2023-06-05T11:06:23;99092.63;;;25.52;46.28
18678;BME280;9469;51.114;13.914;2023-06-05T11:11:57;99091.03;;;25.65;46.26
18678;BME280;9469;51.114;13.914;2023-06-05T11:17:25;99093.72;;;26.11;44.86
18678;BME280;9469;51.114;13.914;2023-06-05T11:22:32;99094.88;;;25.99;45.99
18678;BME280;9469;51.114;13.914;2023-06-05T11:27:44;99075.19;;;26.68;44.97
18678;BME280;9469;51.114;13.914;2023-06-05T11:32:49;99073.00;;;26.31;45.31
18678;BME280;9469;51.114;13.914;2023-06-05T11:38:09;99074.94;;;26.38;44.90
18678;BME280;9469;51.114;13.914;2023-06-05T11:43:18;99064.16;;;24.97;45.98
18678;BME280;9469;51.114;13.914;2023-06-05T11:48:25;99063.06;;;25.43;45.56
18678;BME280;9469;51.114;13.914;2023-06-05T11:53:31;99068.06;;;25.10;45.76
18678;BME280;9469;51.114;13.914;2023-06-05T11:58:48;99048.66;;;25.43;45.19
18678;BME280;9469;51.114;13.914;2023-06-05T12:04:02;99061.88;;;25.62;46.03
18678;BME280;9469;51.114;13.914;2023-06-05T12:09:09;99053.69;;;25.69;45.21
18678;BME280;9469;51.114;13.914;2023-06-05T12:14:33;99044.06;;;26.62;44.27
18678;BME280;9469;51.114;13.914;2023-06-05T12:19:38;99037.41;;;26.63;44.10
18678;BME280;9469;51.114;13.914;2023-06-05T12:24:46;99019.66;;;26.30;44.55
18678;BME280;9469;51.114;13.914;2023-06-05T12:29:58;99029.00;;;26.29;44.89
18678;BME280;9469;51.114;13.914;2023-06-05T12:35:04;99015.56;;;27.21;45.02
18678;BME280;9469;51.114;13.914;2023-06-05T12:40:13;99008.50;;;27.71;43.08
18678;BME280;9469;51.114;13.914;2023-06-05T12:45:38;99024.09;;;25.78;44.86
18678;BME280;9469;51.114;13.914;2023-06-05T12:50:45;99020.31;;;26.52;43.94
18678;BME280;9469;51.114;13.914;2023-06-05T12:55:54;99015.63;;;26.56;44.35
18678;BME280;9469;51.114;13.914;2023-06-05T13:01:02;99008.53;;;25.68;45.95
18678;BME280;9469;51.114;13.914;2023-06-05T13:06:13;99009.97;;;26.01;45.46
18678;BME280;9469;51.114;13.914;2023-06-05T13:11:18;98999.22;;;26.63;44.76
18678;BME280;9469;51.114;13.914;2023-06-05T13:16:26;98979.63;;;26.82;44.34
18678;BME280;9469;51.114;13.914;2023-06-05T13:21:31;98986.78;;;26.55;44.44
18678;BME280;9469;51.114;13.914;2023-06-05T13:26:39;98987.63;;;26.45;43.73
18678;BME280;9469;51.114;13.914;2023-06-05T13:31:50;98987.31;;;26.28;44.55
18678;BME280;9469;51.114;13.914;2023-06-05T13:36:55;98986.34;;;26.63;43.12
18678;BME280;9469;51.114;13.914;2023-06-05T13:42:15;98980.78;;;26.12;44.46
18678;BME280;9469;51.114;13.914;2023-06-05T13:47:23;98982.00;;;26.69;43.03
18678;BME280;9469;51.114;13.914;2023-06-05T13:52:31;98969.84;;;26.15;42.60
18678;BME280;9469;51.114;13.914;2023-06-05T13:57:37;98965.91;;;26.27;42.96
18678;BME280;9469;51.114;13.914;2023-06-05T14:02:50;98969.91;;;25.98;43.48
18678;BME280;9469;51.114;13.914;2023-06-05T14:07:57;98971.91;;;26.63;42.77
18678;BME280;9469;51.114;13.914;2023-06-05T14:13:04;98962.53;;;26.71;42.41
18678;BME280;9469;51.114;13.914;2023-06-05T14:18:14;98965.50;;;26.28;42.89
18678;BME280;9469;51.114;13.914;2023-06-05T14:23:20;98967.53;;;26.03;43.19
18678;BME280;9469;51.114;13.914;2023-06-05T14:28:27;98970.63;;;26.05;43.60
18678;BME280;9469;51.114;13.914;2023-06-05T14:33:35;98965.41;;;25.14;43.73
18678;BME280;9469;51.114;13.914;2023-06-05T14:38:42;98966.19;;;25.11;43.54
18678;BME280;9469;51.114;13.914;2023-06-05T14:43:48;98959.56;;;24.69;47.23
18678;BME280;9469;51.114;13.914;2023-06-05T14:48:57;98967.00;;;23.76;48.95
18678;BME280;9469;51.114;13.914;2023-06-05T14:54:03;98965.50;;;23.85;49.71
18678;BME280;9469;51.114;13.914;2023-06-05T14:59:08;98965.81;;;23.70;50.16
18678;BME280;9469;51.114;13.914;2023-06-05T15:04:30;98962.31;;;23.69;49.54
18678;BME280;9469;51.114;13.914;2023-06-05T15:09:36;98955.56;;;23.45;50.50
18678;BME280;9469;51.114;13.914;2023-06-05T15:14:41;98971.91;;;23.49;51.25
18678;BME280;9469;51.114;13.914;2023-06-05T15:19:49;98981.75;;;23.20;51.38
18678;BME280;9469;51.114;13.914;2023-06-05T15:24:54;98967.75;;;23.15;52.08
18678;BME280;9469;51.114;13.914;2023-06-05T15:29:59;98968.94;;;23.17;51.78
18678;BME280;9469;51.114;13.914;2023-06-05T15:35:10;98963.06;;;23.12;52.11
18678;BME280;9469;51.114;13.914;2023-06-05T15:40:18;98965.38;;;23.06;52.12
18678;BME280;9469;51.114;13.914;2023-06-05T15:45:23;98962.34;;;23.18;52.85
18678;BME280;9469;51.114;13.914;2023-06-05T15:50:34;98953.63;;;22.92;53.35
18678;BME280;9469;51.114;13.914;2023-06-05T15:55:41;98948.19;;;22.88;53.34
18678;BME280;9469;51.114;13.914;2023-06-05T16:00:48;98955.50;;;22.84;53.78
18678;BME280;9469;51.114;13.914;2023-06-05T16:05:58;98954.34;;;22.85;53.58
18678;BME280;9469;51.114;13.914;2023-06-05T16:11:03;98946.47;;;22.73;54.42
18678;BME280;9469;51.114;13.914;2023-06-05T16:16:12;98944.88;;;22.68;55.04
18678;BME280;9469;51.114;13.914;2023-06-05T16:21:23;98948.50;;;22.43;56.67
18678;BME280;9469;51.114;13.914;2023-06-05T16:26:30;98941.66;;;22.19;57.95
18678;BME280;9469;51.114;13.914;2023-06-05T16:31:37;98945.56;;;22.22;58.51
18678;BME280;9469;51.114;13.914;2023-06-05T16:36:48;98945.78;;;22.06;57.90
18678;BME280;9469;51.114;13.914;2023-06-05T16:41:56;98946.34;;;22.22;58.09
18678;BME280;9469;51.114;13.914;2023-06-05T16:47:04;98949.56;;;22.35;58.15
18678;BME280;9469;51.114;13.914;2023-06-05T16:52:13;98948.66;;;22.20;58.57
18678;BME280;9469;51.114;13.914;2023-06-05T16:57:18;98954.59;;;21.99;59.39
18678;BME280;9469;51.114;13.914;2023-06-05T17:02:26;98952.09;;;21.84;59.42
18678;BME280;9469;51.114;13.914;2023-06-05T17:07:35;98949.81;;;21.89;59.50
18678;BME280;9469;51.114;13.914;2023-06-05T17:12:41;98956.56;;;21.73;60.18
18678;BME280;9469;51.114;13.914;2023-06-05T17:17:49;98957.00;;;21.78;60.21
18678;BME280;9469;51.114;13.914;2023-06-05T17:23:01;98953.38;;;21.67;60.37
18678;BME280;9469;51.114;13.914;2023-06-05T17:28:08;98961.81;;;21.62;60.63
18678;BME280;9469;51.114;13.914;2023-06-05T17:33:14;98958.38;;;21.65;61.00
18678;BME280;9469;51.114;13.914;2023-06-05T17:38:23;98967.78;;;22.01;61.69
18678;BME280;9469;51.114;13.914;2023-06-05T17:43:28;98961.56;;;22.00;63.52
18678;BME280;9469;51.114;13.914;2023-06-05T17:48:34;98958.25;;;21.55;66.38
18678;BME280;9469;51.114;13.914;2023-06-05T17:53:43;98956.88;;;21.68;67.18
18678;BME280;9469;51.114;13.914;2023-06-05T17:58:49;98955.75;;;21.42;69.16
18678;BME280;9469;51.114;13.914;2023-06-05T18:03:54;98967.31;;;21.39;70.06
18678;BME280;9469;51.114;13.914;2023-06-05T18:09:04;98960.03;;;21.17;72.18
18678;BME280;9469;51.114;13.914;2023-06-05T18:14:10;98976.22;;;21.14;72.46
18678;BME280;9469;51.114;13.914;2023-06-05T18:19:16;98963.47;;;20.92;73.36
18678;BME280;9469;51.114;13.914;2023-06-05T18:24:26;98972.69;;;21.10;72.52
18678;BME280;9469;51.114;13.914;2023-06-05T18:29:31;98975.91;;;20.73;73.20
18678;BME280;9469;51.114;13.914;2023-06-05T18:34:36;98989.75;;;20.95;72.55
18678;BME280;9469;51.114;13.914;2023-06-05T18:39:45;98989.50;;;20.35;74.55
18678;BME280;9469;51.114;13.914;2023-06-05T18:44:50;98981.06;;;20.59;73.90
18678;BME280;9469;51.114;13.914;2023-06-05T18:49:55;98993.47;;;20.41;74.28
18678;BME280;9469;51.114;13.914;2023-06-05T18:55:03;98999.13;;;20.17;74.88
18678;BME280;9469;51.114;13.914;2023-06-05T19:00:10;98995.72;;;20.01;75.66
18678;BME280;9469;51.114;13.914;2023-06-05T19:05:15;98995.31;;;20.37;74.32
18678;BME280;9469;51.114;13.914;2023-06-05T19:10:23;98999.13;;;20.17;74.98
18678;BME280;9469;51.114;13.914;2023-06-05T19:15:29;99001.13;;;20.01;75.42
18678;BME280;9469;51.114;13.914;2023-06-05T19:20:35;98996.41;;;19.98;76.23
18678;BME280;9469;51.114;13.914;2023-06-05T19:25:44;98992.09;;;19.93;76.13
18678;BME280;9469;51.114;13.914;2023-06-05T19:30:51;99010.75;;;19.83;76.65
18678;BME280;9469;51.114;13.914;2023-06-05T19:35:56;99005.06;;;19.88;76.99
18678;BME280;9469;51.114;13.914;2023-06-05T19:41:04;99014.31;;;19.87;76.85
18678;BME280;9469;51.114;13.914;2023-06-05T19:46:10;99009.63;;;19.84;77.07
18678;BME280;9469;51.114;13.914;2023-06-05T19:51:15;99018.22;;;19.89;77.09
18678;BME280;9469;51.114;13.914;2023-06-05T19:56:23;99008.88;;;19.68;78.04
18678;BME280;9469;51.114;13.914;2023-06-05T20:01:28;99013.09;;;19.50;78.92
18678;BME280;9469;51.114;13.914;2023-06-05T20:06:39;99016.28;;;19.71;78.43
18678;BME280;9469;51.114;13.914;2023-06-05T20:11:47;99013.22;;;19.72;78.16
18678;BME280;9469;51.114;13.914;2023-06-05T20:16:52;99020.59;;;19.41;79.37
18678;BME280;9469;51.114;13.914;2023-06-05T20:21:57;99015.47;;;19.36;79.79
18678;BME280;9469;51.114;13.914;2023-06-05T20:27:10;99006.41;;;19.44;79.07
18678;BME280;9469;51.114;13.914;2023-06-05T20:32:16;99011.25;;;19.22;79.99
18678;BME280;9469;51.114;13.914;2023-06-05T20:37:21;99000.91;;;19.56;78.25
18678;BME280;9469;51.114;13.914;2023-06-05T20:42:35;99017.56;;;19.42;79.16
18678;BME280;9469;51.114;13.914;2023-06-05T20:47:40;99012.34;;;19.49;79.09
18678;BME280;9469;51.114;13.914;2023-06-05T20:52:47;99020.75;;;19.32;79.68
18678;BME280;9469;51.114;13.914;2023-06-05T20:57:55;99018.19;;;19.36;79.42
18678;BME280;9469;51.114;13.914;2023-06-05T21:03:03;99021.88;;;18.84;82.17
18678;BME280;9469;51.114;13.914;2023-06-05T21:08:09;99018.00;;;18.97;81.66
18678;BME280;9469;51.114;13.914;2023-06-05T21:13:16;99018.84;;;18.86;84.37
18678;BME280;9469;51.114;13.914;2023-06-05T21:18:21;99014.94;;;18.83;84.66
18678;BME280;9469;51.114;13.914;2023-06-05T21:23:26;99018.53;;;17.92;88.91
18678;BME280;9469;51.114;13.914;2023-06-05T21:28:35;99012.84;;;17.81;90.18
18678;BME280;9469;51.114;13.914;2023-06-05T21:33:40;99026.09;;;17.86;90.19
18678;BME280;9469;51.114;13.914;2023-06-05T21:38:45;99005.72;;;18.01;89.34
18678;BME280;9469;51.114;13.914;2023-06-05T21:43:53;99001.91;;;18.30;88.65
18678;BME280;9469;51.114;13.914;2023-06-05T21:48:58;99009.03;;;18.50;87.33
18678;BME280;9469;51.114;13.914;2023-06-05T21:54:03;99015.78;;;18.44;87.28
18678;BME280;9469;51.114;13.914;2023-06-05T21:59:13;99018.88;;;18.58;86.77
18678;BME280;9469;51.114;13.914;2023-06-05T22:04:18;99004.56;;;18.70;85.71
18678;BME280;9469;51.114;13.914;2023-06-05T22:09:23;99004.41;;;18.78;86.34
18678;BME280;9469;51.114;13.914;2023-06-05T22:14:32;99011.50;;;18.55;88.12
18678;BME280;9469;51.114;13.914;2023-06-05T22:19:42;99013.50;;;18.18;91.45
18678;BME280;9469;51.114;13.914;2023-06-05T22:24:53;99016.78;;;18.12;92.58
18678;BME280;9469;51.114;13.914;2023-06-05T22:30:01;99017.72;;;18.16;93.15
18678;BME280;9469;51.114;13.914;2023-06-05T22:35:07;99014.00;;;18.08;92.00
18678;BME280;9469;51.114;13.914;2023-06-05T22:40:13;99009.88;;;17.99;93.21
18678;BME280;9469;51.114;13.914;2023-06-05T22:45:24;99013.00;;;17.37;97.76
18678;BME280;9469;51.114;13.914;2023-06-05T22:50:30;99017.03;;;17.18;100.00
18678;BME280;9469;51.114;13.914;2023-06-05T22:55:36;99006.38;;;17.46;100.00
18678;BME280;9469;51.114;13.914;2023-06-05T23:00:45;99012.19;;;17.48;100.00
18678;BME280;9469;51.114;13.914;2023-06-05T23:05:53;99001.91;;;17.38;100.00
18678;BME280;9469;51.114;13.914;2023-06-05T23:10:59;99009.84;;;17.47;100.00
18678;BME280;9469;51.114;13.914;2023-06-05T23:16:07;99020.16;;;17.33;100.00
18678;BME280;9469;51.114;13.914;2023-06-05T23:21:13;99027.66;;;17.27;100.00
18678;BME280;9469;51.114;13.914;2023-06-05T23:26:18;99030.91;;;17.33;100.00
18678;BME280;9469;51.114;13.914;2023-06-05T23:31:31;99013.88;;;17.29;100.00
18678;BME280;9469;51.114;13.914;2023-06-05T23:36:38;99014.22;;;17.39;100.00
18678;BME280;9469;51.114;13.914;2023-06-05T23:41:45;99019.03;;;17.34;100.00
18678;BME280;9469;51.114;13.914;2023-06-05T23:46:54;99013.53;;;17.30;100.00
18678;BME280;9469;51.114;13.914;2023-06-05T23:51:59;99007.47;;;17.21;100.00
18678;BME280;9469;51.114;13.914;2023-06-05T23:57:04;99007.16;;;17.10;100.00
